Time;durP1;ratioP1;P1;durP2;ratioP2;P2;SDS_P1;SDS_P2;PMS_P1;PMS_P2;Temp;Humidity;BMP_temperature;BMP_pressure;BME280_temperature;BME280_humidity;BME280_pressure;Samples;Min_cycle;Max_cycle;Signal;HPM_P1;HPM_P2
2021/12/27 00:02:25;;;;;;;1999.90;999.90;;;-2.20;99.90;;;;;;5012388;28;20535;-70
2021/12/27 00:04:52;;;;;;;1999.90;999.90;;;-2.20;99.90;;;;;;5012033;28;20448;-71
2021/12/27 00:07:19;;;;;;;1999.90;999.90;;;-2.10;99.90;;;;;;5012772;28;20444;-69
2021/12/27 00:09:49;;;;;;;1999.90;999.90;;;-2.10;99.90;;;;;;5012254;28;20452;-70
2021/12/27 00:12:15;;;;;;;1999.90;999.90;;;-2.10;99.90;;;;;;5012180;28;20534;-70
2021/12/27 00:14:42;;;;;;;1999.90;999.90;;;-2.10;99.90;;;;;;5011869;28;20944;-70
2021/12/27 00:17:08;;;;;;;1999.90;999.90;;;-2.10;99.90;;;;;;5012322;28;20908;-72
2021/12/27 00:19:35;;;;;;;1999.90;999.90;;;-1.60;99.90;;;;;;5012127;28;21003;-70
2021/12/27 00:22:02;;;;;;;1999.90;999.90;;;-2.10;99.90;;;;;;5012436;28;20452;-70
2021/12/27 00:24:28;;;;;;;1999.90;999.90;;;-2.00;99.90;;;;;;5011843;28;20452;-70
2021/12/27 00:26:56;;;;;;;1999.90;999.90;;;-2.00;99.90;;;;;;5012508;28;20483;-69
2021/12/27 00:29:23;;;;;;;1999.90;999.90;;;-1.90;99.90;;;;;;5011736;28;20444;-70
2021/12/27 00:31:50;;;;;;;1999.90;999.90;;;-2.00;99.90;;;;;;5012237;28;20452;-71
2021/12/27 00:34:16;;;;;;;1999.90;999.90;;;-2.00;99.90;;;;;;5012130;28;20456;-70
2021/12/27 00:36:43;;;;;;;1999.90;999.90;;;-2.00;99.90;;;;;;5011717;28;20448;-70
2021/12/27 00:39:10;;;;;;;1999.90;999.90;;;-2.10;99.90;;;;;;5011324;28;21000;-70
2021/12/27 00:41:36;;;;;;;1999.90;999.90;;;-2.00;99.90;;;;;;5011791;28;20452;-70
2021/12/27 00:44:05;;;;;;;1999.90;999.90;;;-1.90;99.90;;;;;;5012122;28;20470;-70
2021/12/27 00:46:32;;;;;;;1999.90;999.90;;;-2.00;99.90;;;;;;5011735;28;20448;-70
2021/12/27 00:48:58;;;;;;;1999.90;999.90;;;-1.90;99.90;;;;;;5012063;28;20502;-70
2021/12/27 00:51:25;;;;;;;1999.90;999.90;;;-1.90;99.90;;;;;;5011536;28;20523;-69
2021/12/27 00:53:52;;;;;;;1999.90;999.90;;;-1.90;99.90;;;;;;5011265;28;20511;-70
2021/12/27 00:56:18;;;;;;;1999.90;999.90;;;-1.90;99.90;;;;;;5011908;28;20452;-71
2021/12/27 00:58:45;;;;;;;1999.90;999.90;;;-1.60;99.90;;;;;;5012052;28;20476;-70
2021/12/27 01:01:13;;;;;;;1999.90;999.90;;;-1.90;99.90;;;;;;5011340;28;20452;-70
2021/12/27 01:03:40;;;;;;;1999.90;999.90;;;-1.90;99.90;;;;;;5011838;28;20476;-70
2021/12/27 01:06:06;;;;;;;1999.90;999.90;;;-1.90;99.90;;;;;;5011321;28;20956;-72
2021/12/27 01:08:35;;;;;;;1999.90;999.90;;;-1.40;99.90;;;;;;5011563;28;20448;-70
2021/12/27 01:11:25;;;;;;;1999.90;999.90;;;-1.90;99.90;;;;;;5011225;28;20467;-70
2021/12/27 01:14:03;;;;;;;1999.90;999.90;;;-1.80;99.90;;;;;;5011242;28;20739;-70
2021/12/27 01:16:31;;;;;;;1999.90;999.90;;;-1.80;99.90;;;;;;5011475;28;20546;-70
2021/12/27 01:18:58;;;;;;;1999.90;999.90;;;-1.80;99.90;;;;;;5011894;28;20480;-70
2021/12/27 01:21:25;;;;;;;1999.90;999.90;;;-1.40;99.90;;;;;;5011164;28;20490;-70
2021/12/27 01:23:56;;;;;;;1999.90;999.90;;;-1.90;99.90;;;;;;5011326;28;20468;-72
2021/12/27 01:26:25;;;;;;;1999.90;999.90;;;-1.60;99.90;;;;;;5009167;28;20523;-70
2021/12/27 01:28:52;;;;;;;1999.90;999.90;;;-1.80;99.90;;;;;;5011911;28;20514;-70
2021/12/27 01:31:18;;;;;;;1999.90;999.90;;;-1.80;99.90;;;;;;5011308;28;20948;-73
2021/12/27 01:33:47;;;;;;;1999.90;999.90;;;-1.50;99.90;;;;;;5011467;28;20480;-71
2021/12/27 01:36:14;;;;;;;1999.90;999.90;;;-1.80;99.90;;;;;;5011332;28;20811;-70
2021/12/27 01:38:41;;;;;;;1999.90;999.90;;;-1.80;99.90;;;;;;5010919;28;20484;-70
2021/12/27 01:41:10;;;;;;;1999.90;999.90;;;-1.70;99.90;;;;;;5011280;28;20447;-70
2021/12/27 01:43:38;;;;;;;1999.90;999.90;;;-1.80;99.90;;;;;;5011642;28;20475;-70
2021/12/27 01:46:06;;;;;;;1999.90;999.90;;;-1.80;99.90;;;;;;5011692;28;20499;-70
2021/12/27 01:48:37;;;;;;;1999.90;999.90;;;-1.80;99.90;;;;;;5015022;28;20444;-69
2021/12/27 01:51:08;;;;;;;1999.90;999.90;;;-1.80;99.90;;;;;;5014864;28;20518;-70
2021/12/27 01:53:36;;;;;;;1999.90;999.90;;;-1.80;99.90;;;;;;5015031;28;20526;-70
2021/12/27 01:56:04;;;;;;;1999.90;999.90;;;-1.80;99.90;;;;;;5014889;28;20467;-70
2021/12/27 01:58:31;;;;;;;1999.90;999.90;;;-1.80;99.90;;;;;;4995479;28;20531;-70
2021/12/27 02:01:00;;;;;;;1999.90;999.90;;;-1.70;99.90;;;;;;4998862;28;20452;-71
2021/12/27 02:03:30;;;;;;;1999.90;999.90;;;-1.70;99.90;;;;;;5014612;28;21065;-71
2021/12/27 02:05:57;;;;;;;1999.90;999.90;;;-1.60;99.90;;;;;;5014657;28;21012;-70
2021/12/27 02:08:25;;;;;;;1999.90;999.90;;;-1.60;99.90;;;;;;5014281;28;20452;-70
2021/12/27 02:10:52;;;;;;;1999.90;999.90;;;-1.70;99.90;;;;;;5014719;28;20494;-70
2021/12/27 02:13:20;;;;;;;1999.90;999.90;;;-1.70;99.90;;;;;;5014221;28;20534;-70
2021/12/27 02:15:47;;;;;;;1999.90;999.90;;;-1.70;99.90;;;;;;5014676;28;20502;-72
2021/12/27 02:18:14;;;;;;;1999.90;999.90;;;-1.70;99.90;;;;;;5014607;28;20514;-70
2021/12/27 02:20:43;;;;;;;1999.90;999.90;;;-1.50;99.90;;;;;;5014714;28;20452;-70
2021/12/27 02:23:16;;;;;;;1999.90;999.90;;;-1.40;99.90;;;;;;5014162;28;20550;-70
2021/12/27 02:25:44;;;;;;;1999.90;999.90;;;-1.70;99.90;;;;;;5014156;28;20456;-70
2021/12/27 02:28:11;;;;;;;1999.90;999.90;;;-1.30;99.90;;;;;;5013971;28;20486;-71
2021/12/27 02:30:41;;;;;;;1999.90;999.90;;;-1.70;99.90;;;;;;5014308;28;20452;-70
2021/12/27 02:33:09;;;;;;;1999.90;999.90;;;-1.80;99.90;;;;;;5013972;28;20506;-70
2021/12/27 02:35:41;;;;;;;1999.90;999.90;;;-1.70;99.90;;;;;;5014191;28;20444;-70
2021/12/27 02:38:12;;;;;;;1999.90;999.90;;;-1.60;99.90;;;;;;5014255;28;20803;-70
2021/12/27 02:40:41;;;;;;;1999.90;999.90;;;-1.60;99.90;;;;;;5013967;28;20424;-70
2021/12/27 02:43:11;;;;;;;1999.90;999.90;;;-1.40;99.90;;;;;;5013936;28;20891;-71
2021/12/27 02:45:40;;;;;;;1999.90;999.90;;;-1.40;99.90;;;;;;5014422;28;20494;-70
2021/12/27 02:48:08;;;;;;;1999.90;999.90;;;-1.40;99.90;;;;;;5014123;28;21010;-70
2021/12/27 02:50:36;;;;;;;1999.90;999.90;;;-1.10;99.90;;;;;;5013203;28;20498;-72
2021/12/27 02:53:05;;;;;;;1999.90;999.90;;;-1.30;99.90;;;;;;5013408;28;20502;-70
2021/12/27 02:55:34;;;;;;;1999.90;999.90;;;-1.30;99.90;;;;;;5013864;28;20510;-70
2021/12/27 02:58:00;;;;;;;1999.90;999.90;;;-1.00;99.90;;;;;;5013137;28;20515;-70
2021/12/27 03:00:30;;;;;;;1999.90;999.90;;;-1.30;99.90;;;;;;5014242;28;20488;-70
2021/12/27 03:02:58;;;;;;;1999.90;999.90;;;-1.30;99.90;;;;;;5014452;28;20900;-70
2021/12/27 03:05:27;;;;;;;1999.90;999.90;;;-0.90;99.90;;;;;;5014025;28;20506;-70
2021/12/27 03:07:55;;;;;;;1999.90;999.90;;;-1.20;99.90;;;;;;5013412;28;20890;-70
2021/12/27 03:10:24;;;;;;;1999.90;999.90;;;-0.80;99.90;;;;;;5013349;28;20448;-70
2021/12/27 03:12:54;;;;;;;1999.90;999.90;;;-1.20;99.90;;;;;;5013932;28;20495;-70
2021/12/27 03:15:23;;;;;;;1999.90;999.90;;;-1.20;99.90;;;;;;5013564;28;20448;-71
2021/12/27 03:17:52;;;;;;;1999.90;999.90;;;-1.30;99.90;;;;;;4993874;28;20484;-70
2021/12/27 03:20:21;;;;;;;1999.90;999.90;;;-1.30;99.90;;;;;;5002791;28;20484;-72
2021/12/27 03:22:48;;;;;;;1999.90;999.90;;;-1.30;99.90;;;;;;5013852;28;20526;-71
2021/12/27 03:25:17;;;;;;;1999.90;999.90;;;-1.30;99.90;;;;;;5012885;28;21010;-70
2021/12/27 03:27:44;;;;;;;1999.90;999.90;;;-1.20;99.90;;;;;;5013394;28;20952;-70
2021/12/27 03:30:14;;;;;;;1999.90;999.90;;;-1.20;99.90;;;;;;5012348;28;20452;-70
2021/12/27 03:32:41;;;;;;;1999.90;999.90;;;-1.20;99.90;;;;;;5013189;28;20480;-70
2021/12/27 03:35:13;;;;;;;1999.90;999.90;;;-1.20;99.90;;;;;;5013163;28;21013;-70
2021/12/27 03:37:42;;;;;;;1999.90;999.90;;;-1.20;99.90;;;;;;5013272;28;20868;-70
2021/12/27 03:40:11;;;;;;;1999.90;999.90;;;-1.20;99.90;;;;;;5012596;28;20476;-70
2021/12/27 03:42:37;;;;;;;1999.90;999.90;;;-1.20;99.90;;;;;;5012495;28;20987;-70
2021/12/27 03:45:06;;;;;;;1999.90;999.90;;;-1.20;99.90;;;;;;5012145;28;20452;-70
2021/12/27 03:47:34;;;;;;;1999.90;999.90;;;-1.10;99.90;;;;;;5013244;28;20498;-70
2021/12/27 03:50:01;;;;;;;1999.90;999.90;;;-1.00;99.90;;;;;;5012601;28;20444;-70
2021/12/27 03:52:28;;;;;;;1999.90;999.90;;;-1.00;99.90;;;;;;5013039;28;20468;-70
2021/12/27 03:54:54;;;;;;;1999.90;999.90;;;-0.90;99.90;;;;;;5012980;28;20444;-71
2021/12/27 03:57:21;;;;;;;1999.90;999.90;;;-0.90;99.90;;;;;;5012988;28;20941;-71
2021/12/27 04:00:14;;;;;;;1999.90;999.90;;;-0.70;99.90;;;;;;5012194;28;20480;-73
2021/12/27 04:02:39;;;;;;;1999.90;999.90;;;-0.90;99.90;;;;;;5012552;28;20471;-71
2021/12/27 04:05:08;;;;;;;1999.90;999.90;;;-0.90;99.90;;;;;;5012547;28;20499;-71
2021/12/27 04:07:35;;;;;;;1999.90;999.90;;;-0.90;99.90;;;;;;5012564;28;20463;-70
2021/12/27 04:10:03;;;;;;;1999.90;999.90;;;-0.80;99.90;;;;;;5011531;28;20499;-69
2021/12/27 04:12:29;;;;;;;1999.90;999.90;;;-0.80;99.90;;;;;;5012234;28;20538;-70
2021/12/27 04:14:56;;;;;;;1999.90;999.90;;;-0.90;99.90;;;;;;5012338;28;20444;-70
2021/12/27 04:17:23;;;;;;;1999.90;999.90;;;-0.50;99.90;;;;;;5012950;28;20455;-71
2021/12/27 04:19:51;;;;;;;1999.90;999.90;;;-0.90;99.90;;;;;;5011715;28;20484;-70
2021/12/27 04:22:19;;;;;;;1999.90;999.90;;;-0.90;99.90;;;;;;5012290;28;20472;-70
2021/12/27 04:24:46;;;;;;;1999.90;999.90;;;-0.80;99.90;;;;;;5012394;28;20507;-70
2021/12/27 04:27:12;;;;;;;1999.90;999.90;;;-0.80;99.90;;;;;;5012397;28;20448;-69
2021/12/27 04:29:39;;;;;;;1999.90;999.90;;;-0.40;99.90;;;;;;5011524;28;20460;-70
2021/12/27 04:32:07;;;;;;;1999.90;999.90;;;-0.60;99.90;;;;;;5012515;28;20460;-70
2021/12/27 04:34:34;;;;;;;1999.90;999.90;;;-0.60;99.90;;;;;;5012457;28;20499;-69
2021/12/27 04:37:02;;;;;;;1999.90;999.90;;;-0.50;99.90;;;;;;5012437;28;20452;-71
2021/12/27 04:39:29;;;;;;;1999.90;999.90;;;-0.50;99.90;;;;;;5011721;28;20475;-72
2021/12/27 04:41:56;;;;;;;1999.90;999.90;;;-0.40;99.90;;;;;;5012653;28;20452;-71
2021/12/27 04:44:23;;;;;;;1999.90;999.90;;;-0.40;99.90;;;;;;5012506;28;20443;-70
2021/12/27 04:46:49;;;;;;;1999.90;999.90;;;-0.20;99.90;;;;;;4992861;28;20509;-71
2021/12/27 04:49:16;;;;;;;1999.90;999.90;;;-0.20;99.90;;;;;;4993008;28;20476;-70
2021/12/27 04:51:43;;;;;;;1999.90;999.90;;;-0.20;99.90;;;;;;5010409;28;20506;-70
2021/12/27 04:54:11;;;;;;;1999.90;999.90;;;0.20;99.90;;;;;;5012271;28;20468;-72
2021/12/27 04:56:38;;;;;;;1999.90;999.90;;;-0.10;99.90;;;;;;5011802;28;20452;-71
2021/12/27 04:59:04;;;;;;;1999.90;999.90;;;-0.10;99.90;;;;;;5012418;28;20452;-70
2021/12/27 05:01:31;;;;;;;1999.90;999.90;;;0.10;99.90;;;;;;5011260;28;21023;-66
2021/12/27 05:03:58;;;;;;;1999.90;999.90;;;-0.20;99.90;;;;;;5012008;28;20472;-71
2021/12/27 05:06:27;;;;;;;1999.90;999.90;;;0.30;99.90;;;;;;5011759;28;20460;-72
2021/12/27 05:08:54;;;;;;;1999.90;999.90;;;-0.20;99.90;;;;;;5012082;28;20460;-71
2021/12/27 05:11:22;;;;;;;1999.90;999.90;;;-0.20;99.90;;;;;;5012162;28;20448;-70
2021/12/27 05:13:49;;;;;;;1999.90;999.90;;;-0.20;99.90;;;;;;5011285;28;20480;-71
2021/12/27 05:16:16;;;;;;;1999.90;999.90;;;0.30;99.90;;;;;;5011950;28;20487;-71
2021/12/27 05:18:43;;;;;;;1999.90;999.90;;;-0.10;99.90;;;;;;5012226;28;20448;-71
2021/12/27 05:21:09;;;;;;;1999.90;999.90;;;-0.20;99.90;;;;;;5012465;28;20491;-70
2021/12/27 05:23:36;;;;;;;1999.90;999.90;;;0.30;99.90;;;;;;5015962;28;20499;-71
2021/12/27 05:26:03;;;;;;;1999.90;999.90;;;0.00;99.90;;;;;;5015491;28;20468;-71
2021/12/27 05:28:31;;;;;;;1999.90;999.90;;;-0.10;99.90;;;;;;5016034;28;20444;-71
2021/12/27 05:30:57;;;;;;;1999.90;999.90;;;0.00;99.90;;;;;;5014841;28;20448;-70
2021/12/27 05:33:24;;;;;;;1999.90;999.90;;;-0.10;99.90;;;;;;5015854;28;20538;-70
2021/12/27 05:35:51;;;;;;;1999.90;999.90;;;-0.10;99.90;;;;;;5015511;28;20451;-72
2021/12/27 05:38:17;;;;;;;1999.90;999.90;;;0.00;99.90;;;;;;5015483;28;20864;-71
2021/12/27 05:40:44;;;;;;;1999.90;999.90;;;0.10;99.90;;;;;;5015196;28;20533;-71
2021/12/27 05:43:11;;;;;;;1999.90;999.90;;;-0.10;99.90;;;;;;5015727;28;20891;-70
2021/12/27 05:45:39;;;;;;;1999.90;999.90;;;-0.10;99.90;;;;;;5015018;28;20510;-72
2021/12/27 05:48:07;;;;;;;1999.90;999.90;;;0.10;99.90;;;;;;5015497;28;20506;-71
2021/12/27 05:50:34;;;;;;;1999.90;999.90;;;-0.10;99.90;;;;;;5014464;28;20459;-70
2021/12/27 05:53:01;;;;;;;1999.90;999.90;;;-0.10;99.90;;;;;;5016841;28;20534;-70
2021/12/27 05:55:28;;;;;;;1999.90;999.90;;;-0.10;99.90;;;;;;5014824;28;20964;-70
2021/12/27 05:57:55;;;;;;;1999.90;999.90;;;0.00;99.90;;;;;;5015312;28;20452;-71
2021/12/27 06:00:22;;;;;;;1999.90;999.90;;;0.00;99.90;;;;;;5014945;28;20534;-70
2021/12/27 06:02:51;;;;;;;1999.90;999.90;;;0.10;99.90;;;;;;5015239;28;20534;-71
2021/12/27 06:05:18;;;;;;;1999.90;999.90;;;0.00;99.90;;;;;;5014575;28;20463;-71
2021/12/27 06:07:45;;;;;;;1999.90;999.90;;;0.10;99.90;;;;;;5015696;28;20795;-70
2021/12/27 06:10:13;;;;;;;1999.90;999.90;;;0.10;99.90;;;;;;5014689;28;20452;-71
2021/12/27 06:12:41;;;;;;;1999.90;999.90;;;0.10;99.90;;;;;;5014897;28;20534;-71
2021/12/27 06:15:09;;;;;;;1999.90;999.90;;;0.10;99.90;;;;;;5014499;28;20502;-72
2021/12/27 06:17:36;;;;;;;1999.90;999.90;;;0.00;99.90;;;;;;5015213;28;20499;-70
2021/12/27 06:20:08;;;;;;;1999.90;999.90;;;0.00;99.90;;;;;;5014453;28;20476;-71
2021/12/27 06:22:36;;;;;;;1999.90;999.90;;;0.00;99.90;;;;;;5015097;28;20472;-71
2021/12/27 06:25:03;;;;;;;1999.90;999.90;;;0.00;99.90;;;;;;5014657;28;20472;-71
2021/12/27 06:27:31;;;;;;;1999.90;999.90;;;0.00;99.90;;;;;;5015216;28;20456;-70
2021/12/27 06:29:57;;;;;;;1999.90;999.90;;;0.10;99.90;;;;;;5013963;28;20944;-70
2021/12/27 06:32:24;;;;;;;1999.90;999.90;;;0.10;99.90;;;;;;5014405;28;20475;-70
2021/12/27 06:34:51;;;;;;;1999.90;999.90;;;0.40;99.90;;;;;;5014082;28;20448;-70
2021/12/27 06:37:19;;;;;;;1999.90;999.90;;;0.10;99.90;;;;;;5015013;28;20502;-72
2021/12/27 06:39:46;;;;;;;1999.90;999.90;;;0.30;99.90;;;;;;5013830;28;21062;-71
2021/12/27 06:42:12;;;;;;;1999.90;999.90;;;0.10;99.90;;;;;;5014485;28;21016;-71
2021/12/27 06:44:39;;;;;;;1999.90;999.90;;;0.10;99.90;;;;;;5014172;28;20452;-70
2021/12/27 06:47:06;;;;;;;1999.90;999.90;;;0.20;99.90;;;;;;5014594;28;20517;-71
2021/12/27 06:49:33;;;;;;;1999.90;999.90;;;0.10;99.90;;;;;;5014240;28;20448;-72
2021/12/27 06:51:59;;;;;;;1999.90;999.90;;;0.20;99.90;;;;;;5013812;28;20472;-71
2021/12/27 06:54:28;;;;;;;1999.90;999.90;;;0.10;99.90;;;;;;5014404;28;20518;-71
2021/12/27 06:56:57;;;;;;;1999.90;999.90;;;0.20;99.90;;;;;;5014290;28;20450;-71
2021/12/27 06:59:24;;;;;;;1999.90;999.90;;;0.20;99.90;;;;;;5014084;28;20912;-71
2021/12/27 07:01:51;;;;;;;1999.90;999.90;;;0.70;99.90;;;;;;5013587;28;20534;-70
2021/12/27 07:04:17;;;;;;;1999.90;999.90;;;0.40;99.90;;;;;;5013940;28;20432;-71
2021/12/27 07:06:44;;;;;;;1999.90;999.90;;;0.50;99.90;;;;;;5013865;28;20487;-70
2021/12/27 07:09:11;;;;;;;1999.90;999.90;;;0.50;99.90;;;;;;5013608;28;20948;-71
2021/12/27 07:11:38;;;;;;;1999.90;999.90;;;0.40;99.90;;;;;;5014064;28;20436;-71
2021/12/27 07:14:06;;;;;;;1999.90;999.90;;;0.60;99.90;;;;;;5013337;28;20484;-71
2021/12/27 07:16:33;;;;;;;1999.90;999.90;;;0.40;99.90;;;;;;5013469;28;20494;-72
2021/12/27 07:19:00;;;;;;;1999.90;999.90;;;0.30;99.90;;;;;;5012831;28;20445;-70
2021/12/27 07:21:26;;;;;;;1999.90;999.90;;;0.30;99.90;;;;;;5013132;28;20984;-71
2021/12/27 07:23:53;;;;;;;1999.90;999.90;;;0.30;99.90;;;;;;5013661;28;20514;-71
2021/12/27 07:26:20;;;;;;;1999.90;999.90;;;0.30;99.90;;;;;;5013593;28;20452;-71
2021/12/27 07:28:48;;;;;;;1999.90;999.90;;;0.70;99.90;;;;;;5013283;28;20503;-69
2021/12/27 07:31:14;;;;;;;1999.90;999.90;;;0.80;99.90;;;;;;5013764;28;20452;-71
2021/12/27 07:33:41;;;;;;;1999.90;999.90;;;0.30;99.90;;;;;;5013324;28;20476;-71
2021/12/27 07:36:10;;;;;;;1999.90;999.90;;;0.70;99.90;;;;;;5013619;28;20510;-71
2021/12/27 07:38:38;;;;;;;1999.90;999.90;;;0.30;99.90;;;;;;5012965;28;20852;-71
2021/12/27 07:41:05;;;;;;;1999.90;999.90;;;0.30;99.90;;;;;;5012996;28;20479;-72
2021/12/27 07:43:32;;;;;;;1999.90;999.90;;;0.30;99.90;;;;;;5013419;28;20518;-71
2021/12/27 07:46:00;;;;;;;1999.90;999.90;;;0.30;99.90;;;;;;5013558;28;20848;-69
2021/12/27 07:48:27;;;;;;;1999.90;999.90;;;0.30;99.90;;;;;;5012931;28;20502;-71
2021/12/27 07:50:53;;;;;;;1999.90;999.90;;;0.60;99.90;;;;;;5012689;28;20448;-71
2021/12/27 07:53:20;;;;;;;1999.90;999.90;;;0.40;99.90;;;;;;5013339;28;20478;-71
2021/12/27 07:55:47;;;;;;;1999.90;999.90;;;0.30;99.90;;;;;;5012667;28;20460;-70
2021/12/27 07:58:13;;;;;;;1999.90;999.90;;;0.30;99.90;;;;;;5012711;28;21159;-71
2021/12/27 08:00:40;;;;;;;1999.90;999.90;;;0.40;99.90;;;;;;5012627;28;20475;-71
2021/12/27 08:03:08;;;;;;;1999.90;999.90;;;0.40;99.90;;;;;;5012567;28;20468;-71
2021/12/27 08:05:35;;;;;;;1999.90;999.90;;;0.50;99.90;;;;;;5012750;28;20452;-70
2021/12/27 08:08:02;;;;;;;1999.90;999.90;;;0.50;99.90;;;;;;5012601;28;20491;-71
2021/12/27 08:10:30;;;;;;;1999.90;999.90;;;0.50;99.90;;;;;;5012085;28;20455;-72
2021/12/27 08:12:57;;;;;;;1999.90;999.90;;;0.60;99.90;;;;;;5012905;28;20487;-71
2021/12/27 08:15:24;;;;;;;1999.90;999.90;;;0.60;99.90;;;;;;5012724;28;20506;-71
2021/12/27 08:17:50;;;;;;;1999.90;999.90;;;0.70;99.90;;;;;;5012984;28;20453;-71
2021/12/27 08:20:18;;;;;;;1999.90;999.90;;;0.50;99.90;;;;;;5012098;28;20456;-72
2021/12/27 08:22:45;;;;;;;1999.90;999.90;;;0.70;99.90;;;;;;5011308;28;20537;-70
2021/12/27 08:25:12;;;;;;;1999.90;999.90;;;1.00;99.90;;;;;;5012440;28;20456;-71
2021/12/27 08:27:40;;;;;;;1999.90;999.90;;;0.60;99.90;;;;;;5012566;28;20875;-71
2021/12/27 08:30:08;;;;;;;1999.90;999.90;;;0.60;99.90;;;;;;5008855;28;20515;-71
2021/12/27 08:32:37;;;;;;;1999.90;999.90;;;0.70;99.90;;;;;;5003463;28;20477;-71
2021/12/27 08:35:04;;;;;;;1999.90;999.90;;;0.70;99.90;;;;;;4997598;28;20476;-70
2021/12/27 08:37:33;;;;;;;1999.90;999.90;;;0.80;99.90;;;;;;5011440;28;20872;-70
2021/12/27 08:40:01;;;;;;;1999.90;999.90;;;0.70;99.90;;;;;;5010355;28;20468;-68
2021/12/27 08:42:27;;;;;;;1999.90;999.90;;;0.80;99.90;;;;;;5011230;28;20910;-70
2021/12/27 08:44:54;;;;;;;1999.90;999.90;;;1.20;99.90;;;;;;5002256;28;20495;-69
2021/12/27 08:47:21;;;;;;;1999.90;999.90;;;0.90;99.90;;;;;;5010418;28;20464;-70
2021/12/27 08:49:48;;;;;;;1999.90;999.90;;;1.30;99.90;;;;;;5008725;28;20444;-69
2021/12/27 08:52:15;;;;;;;1999.90;999.90;;;1.10;99.90;;;;;;5010171;28;20505;-70
2021/12/27 08:54:43;;;;;;;1999.90;999.90;;;1.20;99.90;;;;;;5011789;28;20445;-70
2021/12/27 08:57:09;;;;;;;1999.90;999.90;;;1.30;99.90;;;;;;5011209;28;20456;-70
2021/12/27 08:59:37;;;;;;;1999.90;999.90;;;1.60;99.90;;;;;;5009891;28;20452;-70
2021/12/27 09:02:04;;;;;;;1999.90;999.90;;;1.40;99.90;;;;;;5006673;28;20564;-71
2021/12/27 09:04:31;;;;;;;1999.90;999.90;;;1.30;99.90;;;;;;5012016;28;20452;-71
2021/12/27 09:06:58;;;;;;;1999.90;999.90;;;1.20;99.90;;;;;;5011499;28;20944;-67
2021/12/27 09:09:25;;;;;;;1999.90;999.90;;;1.20;99.90;;;;;;5005739;28;20869;-71
2021/12/27 09:11:53;;;;;;;1999.90;999.90;;;1.50;99.90;;;;;;5011767;28;20444;-70
2021/12/27 09:14:20;;;;;;;1999.90;999.90;;;1.50;99.90;;;;;;5010930;28;20451;-70
2021/12/27 09:16:47;;;;;;;1999.90;999.90;;;1.70;99.90;;;;;;5009886;28;20501;-70
2021/12/27 09:19:15;;;;;;;1999.90;999.90;;;1.50;99.90;;;;;;5009413;28;20452;-71
2021/12/27 09:21:42;;;;;;;1999.90;999.90;;;1.40;99.90;;;;;;5011066;28;20862;-71
2021/12/27 09:24:09;;;;;;;1999.90;999.90;;;1.40;99.90;;;;;;5007368;28;20527;-71
2021/12/27 09:26:39;;;;;;;1999.90;999.90;;;1.60;99.90;;;;;;5010670;28;20444;-72
2021/12/27 09:29:07;;;;;;;1999.90;999.90;;;1.80;99.90;;;;;;5000711;28;21164;-70
2021/12/27 09:31:34;;;;;;;1999.90;999.90;;;1.90;99.90;;;;;;5002332;28;20456;-72
2021/12/27 09:34:01;;;;;;;1999.90;999.90;;;1.90;99.90;;;;;;5010649;28;20475;-69
2021/12/27 09:36:27;;;;;;;1999.90;999.90;;;2.00;99.90;;;;;;5005190;28;20488;-71
2021/12/27 09:38:54;;;;;;;1999.90;999.90;;;2.00;99.90;;;;;;5009746;28;20851;-69
2021/12/27 09:41:21;;;;;;;1999.90;999.90;;;1.80;99.90;;;;;;5010549;28;20476;-67
2021/12/27 09:43:48;;;;;;;1999.90;999.90;;;1.70;99.90;;;;;;5007741;28;20488;-66
2021/12/27 09:46:16;;;;;;;1999.90;999.90;;;1.80;99.90;;;;;;5010555;28;20518;-67
2021/12/27 09:48:43;;;;;;;1999.90;999.90;;;1.90;99.90;;;;;;5011283;28;20494;-70
2021/12/27 09:51:10;;;;;;;1999.90;999.90;;;1.80;99.90;;;;;;5011259;28;20445;-71
2021/12/27 09:53:37;;;;;;;1999.90;999.90;;;1.90;99.90;;;;;;5009892;28;20479;-71
2021/12/27 09:56:08;;;;;;;1999.90;999.90;;;2.10;99.90;;;;;;5009423;28;20455;-71
2021/12/27 09:58:35;;;;;;;1999.90;999.90;;;2.10;99.90;;;;;;5018851;28;20513;-70
2021/12/27 10:01:03;;;;;;;1999.90;999.90;;;2.10;99.90;;;;;;5026076;28;20476;-70
2021/12/27 10:03:31;;;;;;;1999.90;999.90;;;2.30;99.90;;;;;;5011122;28;20571;-71
2021/12/27 10:06:09;;;;;;;1999.90;999.90;;;2.50;99.90;;;;;;5009274;28;20519;-70
2021/12/27 10:08:36;;;;;;;1999.90;999.90;;;2.30;99.90;;;;;;5006202;28;20488;-69
2021/12/27 10:11:02;;;;;;;1999.90;999.90;;;2.60;99.90;;;;;;5011647;28;20448;-69
2021/12/27 10:13:29;;;;;;;1999.90;999.90;;;2.50;99.90;;;;;;5013606;28;20911;-73
2021/12/27 10:15:56;;;;;;;1999.90;999.90;;;2.50;99.90;;;;;;5008189;28;20517;-71
2021/12/27 10:18:24;;;;;;;1999.90;999.90;;;2.50;99.90;;;;;;5011433;28;20865;-66
2021/12/27 10:20:52;;;;;;;1999.90;999.90;;;2.60;99.90;;;;;;5013211;28;20470;-68
2021/12/27 10:23:19;;;;;;;1999.90;999.90;;;2.60;99.90;;;;;;5010632;28;20468;-69
2021/12/27 10:25:49;;;;;;;1999.90;999.90;;;2.60;99.90;;;;;;5013641;28;20460;-72
2021/12/27 10:28:16;;;;;;;1999.90;999.90;;;2.60;99.90;;;;;;5004797;28;20535;-74
2021/12/27 10:30:45;;;;;;;1999.90;999.90;;;2.60;99.90;;;;;;5013417;28;20453;-70
2021/12/27 10:33:14;;;;;;;1999.90;999.90;;;2.70;99.90;;;;;;5006435;28;20579;-71
2021/12/27 10:35:43;;;;;;;1999.90;999.90;;;2.70;99.90;;;;;;5011443;28;20452;-72
2021/12/27 10:38:20;;;;;;;1999.90;999.90;;;2.80;99.90;;;;;;5010804;28;20448;-68
2021/12/27 10:40:56;;;;;;;1999.90;999.90;;;2.80;99.90;;;;;;5012641;28;20937;-70
2021/12/27 10:43:39;;;;;;;1999.90;999.90;;;2.90;99.90;;;;;;5012313;28;20464;-70
2021/12/27 10:46:08;;;;;;;1999.90;999.90;;;3.20;99.90;;;;;;5013476;28;20450;-68
2021/12/27 10:48:36;;;;;;;1999.90;999.90;;;2.80;99.90;;;;;;5008052;28;20456;-70
2021/12/27 10:51:04;;;;;;;1999.90;999.90;;;3.00;99.90;;;;;;5009694;28;20444;-71
2021/12/27 10:53:44;;;;;;;1999.90;999.90;;;2.90;99.90;;;;;;4998830;28;20838;-71
2021/12/27 10:56:11;;;;;;;1999.90;999.90;;;2.80;99.90;;;;;;5012295;28;20448;-69
2021/12/27 10:58:45;;;;;;;1999.90;999.90;;;2.80;99.90;;;;;;5013573;28;20444;-71
2021/12/27 11:01:17;;;;;;;1999.90;999.90;;;3.10;99.90;;;;;;5012609;28;20476;-71
2021/12/27 11:03:45;;;;;;;1999.90;999.90;;;2.80;99.90;;;;;;5012753;28;20483;-72
2021/12/27 11:06:13;;;;;;;1999.90;999.90;;;3.10;99.90;;;;;;5010675;28;20975;-73
2021/12/27 11:08:44;;;;;;;1999.90;999.90;;;2.80;99.90;;;;;;5008663;28;20453;-69
2021/12/27 11:11:13;;;;;;;1999.90;999.90;;;2.80;99.90;;;;;;5026815;28;20464;-72
2021/12/27 11:13:41;;;;;;;1999.90;999.90;;;2.80;99.90;;;;;;5020186;28;20460;-69
2021/12/27 11:16:07;;;;;;;1999.90;999.90;;;2.80;99.90;;;;;;5012875;28;20487;-70
2021/12/27 11:18:34;;;;;;;1999.90;999.90;;;2.70;99.90;;;;;;5013875;28;20498;-70
2021/12/27 11:21:04;;;;;;;1999.90;999.90;;;2.80;99.90;;;;;;5012912;28;20440;-69
2021/12/27 11:23:32;;;;;;;1999.90;999.90;;;2.90;99.90;;;;;;5014030;28;20979;-68
2021/12/27 11:26:04;;;;;;;1999.90;999.90;;;3.30;99.90;;;;;;5013600;28;20499;-69
2021/12/27 11:28:34;;;;;;;1999.90;999.90;;;3.10;99.90;;;;;;5012727;28;20452;-69
2021/12/27 11:31:05;;;;;;;1999.90;999.90;;;3.10;99.90;;;;;;5012460;28;20448;-68
2021/12/27 11:33:33;;;;;;;1999.90;999.90;;;3.30;99.90;;;;;;5013690;28;20472;-71
2021/12/27 11:36:09;;;;;;;1999.90;999.90;;;3.60;99.90;;;;;;5013804;28;20448;-69
2021/12/27 11:38:40;;;;;;;1999.90;999.90;;;3.40;99.90;;;;;;5013600;28;20444;-69
2021/12/27 11:41:25;;;;;;;1999.90;999.90;;;3.40;99.90;;;;;;5013052;28;20820;-69
2021/12/27 11:43:55;;;;;;;1999.90;999.90;;;3.30;99.90;;;;;;5012594;28;21163;-68
2021/12/27 11:46:22;;;;;;;1999.90;999.90;;;3.20;99.90;;;;;;5013519;28;20459;-69
2021/12/27 11:48:51;;;;;;;1999.90;999.90;;;3.10;99.90;;;;;;5011986;28;20444;-69
2021/12/27 11:51:28;;;;;;;1999.90;999.90;;;2.90;99.90;;;;;;5011761;28;20856;-70
2021/12/27 11:53:55;;;;;;;1999.90;999.90;;;3.00;99.90;;;;;;5011674;28;20473;-71
2021/12/27 11:56:46;;;;;;;1999.90;999.90;;;3.00;99.90;;;;;;5013254;28;21296;-68
2021/12/27 11:59:38;;;;;;;1999.90;999.90;;;3.00;99.90;;;;;;5013093;28;20514;-68
2021/12/27 12:02:27;;;;;;;1999.90;999.90;;;3.00;99.90;;;;;;5011431;28;20472;-68
2021/12/27 12:04:55;;;;;;;1999.90;999.90;;;3.10;99.90;;;;;;4993382;28;20499;-66
2021/12/27 12:07:54;;;;;;;1999.90;999.90;;;3.10;99.90;;;;;;4999999;28;20452;-66
2021/12/27 12:10:21;;;;;;;1999.90;999.90;;;3.20;99.90;;;;;;5001622;28;20456;-65